sensor_id;sensor_type;location;lat;lon;timestamp;pressure;altitude;pressure_sealevel;temperature;humidity
12219;BME280;6172;42.646;23.344;2023-01-28T00:02:07;93982.28;;;-1.61;100.00
12219;BME280;6172;42.646;23.344;2023-01-28T00:04:34;93976.72;;;-1.53;100.00
12219;BME280;6172;42.646;23.344;2023-01-28T00:07:01;93979.38;;;-1.53;100.00
12219;BME280;6172;42.646;23.344;2023-01-28T00:09:28;93993.91;;;-1.73;100.00
12219;BME280;6172;42.646;23.344;2023-01-28T00:11:57;93989.88;;;-1.63;100.00
12219;BME280;6172;42.646;23.344;2023-01-28T00:14:24;93995.22;;;-1.63;100.00
12219;BME280;6172;42.646;23.344;2023-01-28T00:16:51;94003.56;;;-1.65;100.00
12219;BME280;6172;42.646;23.344;2023-01-28T00:19:18;94010.41;;;-1.68;100.00
12219;BME280;6172;42.646;23.344;2023-01-28T00:21:46;94012.28;;;-1.68;100.00
12219;BME280;6172;42.646;23.344;2023-01-28T00:24:13;94007.94;;;-1.76;100.00
12219;BME280;6172;42.646;23.344;2023-01-28T00:26:40;94013.13;;;-1.64;100.00
12219;BME280;6172;42.646;23.344;2023-01-28T00:29:10;94016.28;;;-1.58;100.00
12219;BME280;6172;42.646;23.344;2023-01-28T00:31:37;94005.31;;;-1.53;100.00
12219;BME280;6172;42.646;23.344;2023-01-28T00:34:05;94012.91;;;-1.55;100.00
12219;BME280;6172;42.646;23.344;2023-01-28T00:36:32;94003.59;;;-1.42;100.00
12219;BME280;6172;42.646;23.344;2023-01-28T00:38:59;94016.25;;;-1.39;100.00
12219;BME280;6172;42.646;23.344;2023-01-28T00:41:30;94017.09;;;-1.35;100.00
12219;BME280;6172;42.646;23.344;2023-01-28T00:43:58;94019.81;;;-1.54;100.00
12219;BME280;6172;42.646;23.344;2023-01-28T00:46:27;94007.91;;;-1.57;100.00
12219;BME280;6172;42.646;23.344;2023-01-28T00:48:54;94027.47;;;-1.53;100.00
12219;BME280;6172;42.646;23.344;2023-01-28T00:51:23;94001.47;;;-1.75;100.00
12219;BME280;6172;42.646;23.344;2023-01-28T00:53:53;94022.41;;;-1.58;100.00
12219;BME280;6172;42.646;23.344;2023-01-28T00:56:21;94026.00;;;-1.70;100.00
12219;BME280;6172;42.646;23.344;2023-01-28T00:58:48;94023.47;;;-1.63;100.00
12219;BME280;6172;42.646;23.344;2023-01-28T01:01:17;94023.53;;;-1.59;100.00
12219;BME280;6172;42.646;23.344;2023-01-28T01:03:47;94014.72;;;-1.40;100.00
12219;BME280;6172;42.646;23.344;2023-01-28T01:06:19;94020.88;;;-1.59;100.00
12219;BME280;6172;42.646;23.344;2023-01-28T01:08:47;94025.41;;;-1.40;100.00
12219;BME280;6172;42.646;23.344;2023-01-28T01:11:14;94018.03;;;-1.47;100.00
12219;BME280;6172;42.646;23.344;2023-01-28T01:13:42;94024.72;;;-1.37;100.00
12219;BME280;6172;42.646;23.344;2023-01-28T01:16:12;94023.81;;;-1.45;100.00
12219;BME280;6172;42.646;23.344;2023-01-28T01:18:40;94018.91;;;-1.62;100.00
12219;BME280;6172;42.646;23.344;2023-01-28T01:21:11;94027.13;;;-1.51;100.00
12219;BME280;6172;42.646;23.344;2023-01-28T01:23:38;94021.34;;;-1.53;100.00
12219;BME280;6172;42.646;23.344;2023-01-28T01:26:07;94011.28;;;-1.41;100.00
12219;BME280;6172;42.646;23.344;2023-01-28T01:28:34;94033.56;;;-1.52;100.00
12219;BME280;6172;42.646;23.344;2023-01-28T01:31:03;94026.63;;;-1.57;100.00
12219;BME280;6172;42.646;23.344;2023-01-28T01:33:30;94026.34;;;-1.52;100.00
12219;BME280;6172;42.646;23.344;2023-01-28T01:35:58;94031.28;;;-1.73;100.00
12219;BME280;6172;42.646;23.344;2023-01-28T01:38:28;94027.41;;;-1.76;100.00
12219;BME280;6172;42.646;23.344;2023-01-28T01:40:56;94030.78;;;-1.59;100.00
12219;BME280;6172;42.646;23.344;2023-01-28T01:43:24;94030.91;;;-1.52;100.00
12219;BME280;6172;42.646;23.344;2023-01-28T01:45:55;94023.53;;;-1.78;100.00
12219;BME280;6172;42.646;23.344;2023-01-28T01:48:28;94030.78;;;-1.79;100.00
12219;BME280;6172;42.646;23.344;2023-01-28T01:51:01;94034.00;;;-1.70;100.00
12219;BME280;6172;42.646;23.344;2023-01-28T01:53:31;94029.94;;;-1.63;100.00
12219;BME280;6172;42.646;23.344;2023-01-28T01:56:03;94032.31;;;-1.58;100.00
12219;BME280;6172;42.646;23.344;2023-01-28T01:58:34;94029.63;;;-1.58;100.00
12219;BME280;6172;42.646;23.344;2023-01-28T02:01:02;94033.03;;;-1.81;100.00
12219;BME280;6172;42.646;23.344;2023-01-28T02:03:50;94034.56;;;-1.80;100.00
12219;BME280;6172;42.646;23.344;2023-01-28T02:06:19;94041.19;;;-1.74;100.00
12219;BME280;6172;42.646;23.344;2023-01-28T02:08:53;94044.09;;;-1.63;100.00
12219;BME280;6172;42.646;23.344;2023-01-28T02:11:20;94048.38;;;-1.78;100.00
12219;BME280;6172;42.646;23.344;2023-01-28T02:13:51;94040.50;;;-1.71;100.00
12219;BME280;6172;42.646;23.344;2023-01-28T02:16:22;94053.53;;;-1.66;100.00
12219;BME280;6172;42.646;23.344;2023-01-28T02:18:50;94041.09;;;-1.77;100.00
12219;BME280;6172;42.646;23.344;2023-01-28T02:21:41;94050.00;;;-1.73;100.00
12219;BME280;6172;42.646;23.344;2023-01-28T02:24:35;94045.63;;;-1.62;100.00
12219;BME280;6172;42.646;23.344;2023-01-28T02:27:18;94049.69;;;-1.68;100.00
12219;BME280;6172;42.646;23.344;2023-01-28T02:29:55;94043.56;;;-1.69;100.00
12219;BME280;6172;42.646;23.344;2023-01-28T02:32:29;94051.56;;;-1.69;100.00
12219;BME280;6172;42.646;23.344;2023-01-28T02:35:05;94051.38;;;-1.79;100.00
12219;BME280;6172;42.646;23.344;2023-01-28T02:37:38;94039.66;;;-1.75;100.00
12219;BME280;6172;42.646;23.344;2023-01-28T02:40:10;94049.91;;;-1.77;100.00
12219;BME280;6172;42.646;23.344;2023-01-28T02:42:39;94052.22;;;-1.75;100.00
12219;BME280;6172;42.646;23.344;2023-01-28T02:45:16;94053.91;;;-1.86;100.00
12219;BME280;6172;42.646;23.344;2023-01-28T02:47:44;94054.38;;;-2.00;100.00
12219;BME280;6172;42.646;23.344;2023-01-28T02:50:26;94043.59;;;-1.88;100.00
12219;BME280;6172;42.646;23.344;2023-01-28T02:53:04;94045.97;;;-1.83;100.00
12219;BME280;6172;42.646;23.344;2023-01-28T02:55:55;94052.88;;;-1.82;100.00
12219;BME280;6172;42.646;23.344;2023-01-28T02:58:32;94050.13;;;-1.66;100.00
12219;BME280;6172;42.646;23.344;2023-01-28T03:01:08;94050.59;;;-1.60;100.00
12219;BME280;6172;42.646;23.344;2023-01-28T03:03:43;94054.53;;;-1.74;100.00
12219;BME280;6172;42.646;23.344;2023-01-28T03:06:19;94055.25;;;-1.77;100.00
12219;BME280;6172;42.646;23.344;2023-01-28T03:08:50;94066.75;;;-1.73;100.00
12219;BME280;6172;42.646;23.344;2023-01-28T03:11:39;94057.22;;;-1.74;100.00
12219;BME280;6172;42.646;23.344;2023-01-28T03:14:26;94056.78;;;-1.76;100.00
12219;BME280;6172;42.646;23.344;2023-01-28T03:17:15;94054.41;;;-1.81;100.00
12219;BME280;6172;42.646;23.344;2023-01-28T03:20:02;94061.94;;;-1.86;100.00
12219;BME280;6172;42.646;23.344;2023-01-28T03:22:50;94064.94;;;-1.88;100.00
12219;BME280;6172;42.646;23.344;2023-01-28T03:25:37;94059.03;;;-1.78;100.00
12219;BME280;6172;42.646;23.344;2023-01-28T03:28:24;94053.97;;;-1.83;100.00
12219;BME280;6172;42.646;23.344;2023-01-28T03:31:11;94062.69;;;-1.86;100.00
12219;BME280;6172;42.646;23.344;2023-01-28T03:33:59;94068.09;;;-1.82;100.00
12219;BME280;6172;42.646;23.344;2023-01-28T03:36:45;94073.78;;;-1.84;100.00
12219;BME280;6172;42.646;23.344;2023-01-28T03:39:16;94068.72;;;-1.89;100.00
12219;BME280;6172;42.646;23.344;2023-01-28T03:41:55;94064.16;;;-1.88;100.00
12219;BME280;6172;42.646;23.344;2023-01-28T03:44:23;94073.59;;;-1.75;100.00
12219;BME280;6172;42.646;23.344;2023-01-28T03:47:08;94068.38;;;-1.68;100.00
12219;BME280;6172;42.646;23.344;2023-01-28T03:49:39;94065.22;;;-1.74;100.00
12219;BME280;6172;42.646;23.344;2023-01-28T03:52:06;94074.72;;;-1.76;100.00
12219;BME280;6172;42.646;23.344;2023-01-28T03:54:34;94074.06;;;-1.89;100.00
12219;BME280;6172;42.646;23.344;2023-01-28T03:57:01;94072.97;;;-1.88;100.00
12219;BME280;6172;42.646;23.344;2023-01-28T03:59:30;94084.19;;;-1.79;100.00
12219;BME280;6172;42.646;23.344;2023-01-28T04:01:59;94082.03;;;-1.73;100.00
12219;BME280;6172;42.646;23.344;2023-01-28T04:04:28;94076.25;;;-1.75;100.00
12219;BME280;6172;42.646;23.344;2023-01-28T04:06:59;94081.03;;;-1.84;100.00
12219;BME280;6172;42.646;23.344;2023-01-28T04:09:26;94081.66;;;-1.91;100.00
12219;BME280;6172;42.646;23.344;2023-01-28T04:11:53;94086.91;;;-1.94;100.00
12219;BME280;6172;42.646;23.344;2023-01-28T04:14:23;94091.00;;;-1.81;100.00
12219;BME280;6172;42.646;23.344;2023-01-28T04:16:50;94083.41;;;-1.98;100.00
12219;BME280;6172;42.646;23.344;2023-01-28T04:19:19;94083.97;;;-1.89;100.00
12219;BME280;6172;42.646;23.344;2023-01-28T04:21:47;94086.31;;;-1.88;100.00
12219;BME280;6172;42.646;23.344;2023-01-28T04:24:16;94080.09;;;-1.92;100.00
12219;BME280;6172;42.646;23.344;2023-01-28T04:26:43;94090.91;;;-2.04;100.00
12219;BME280;6172;42.646;23.344;2023-01-28T04:29:10;94096.94;;;-2.07;100.00
12219;BME280;6172;42.646;23.344;2023-01-28T04:31:37;94096.75;;;-1.98;100.00
12219;BME280;6172;42.646;23.344;2023-01-28T04:34:04;94097.69;;;-1.91;100.00
12219;BME280;6172;42.646;23.344;2023-01-28T04:36:31;94100.25;;;-1.94;100.00
12219;BME280;6172;42.646;23.344;2023-01-28T04:38:58;94101.75;;;-1.97;100.00
12219;BME280;6172;42.646;23.344;2023-01-28T04:41:28;94109.06;;;-1.94;100.00
12219;BME280;6172;42.646;23.344;2023-01-28T04:43:55;94103.28;;;-1.96;100.00
12219;BME280;6172;42.646;23.344;2023-01-28T04:46:22;94113.13;;;-2.00;100.00
12219;BME280;6172;42.646;23.344;2023-01-28T04:48:49;94117.53;;;-2.07;100.00
12219;BME280;6172;42.646;23.344;2023-01-28T04:51:16;94120.97;;;-2.07;100.00
12219;BME280;6172;42.646;23.344;2023-01-28T04:53:43;94117.28;;;-2.02;100.00
12219;BME280;6172;42.646;23.344;2023-01-28T04:56:10;94106.09;;;-2.08;100.00
12219;BME280;6172;42.646;23.344;2023-01-28T04:58:40;94118.56;;;-2.12;100.00
12219;BME280;6172;42.646;23.344;2023-01-28T05:01:07;94121.91;;;-1.99;100.00
12219;BME280;6172;42.646;23.344;2023-01-28T05:03:34;94120.38;;;-2.16;100.00
12219;BME280;6172;42.646;23.344;2023-01-28T05:06:01;94117.19;;;-2.06;100.00
12219;BME280;6172;42.646;23.344;2023-01-28T05:08:29;94138.38;;;-2.13;100.00
12219;BME280;6172;42.646;23.344;2023-01-28T05:10:56;94127.78;;;-2.09;100.00
12219;BME280;6172;42.646;23.344;2023-01-28T05:13:24;94136.66;;;-2.05;100.00
12219;BME280;6172;42.646;23.344;2023-01-28T05:15:54;94143.66;;;-2.16;100.00
12219;BME280;6172;42.646;23.344;2023-01-28T05:18:20;94148.47;;;-2.06;100.00
12219;BME280;6172;42.646;23.344;2023-01-28T05:20:47;94144.84;;;-2.14;100.00
12219;BME280;6172;42.646;23.344;2023-01-28T05:23:14;94135.88;;;-2.21;100.00
12219;BME280;6172;42.646;23.344;2023-01-28T05:25:42;94149.84;;;-2.12;100.00
12219;BME280;6172;42.646;23.344;2023-01-28T05:28:10;94150.69;;;-2.08;100.00
12219;BME280;6172;42.646;23.344;2023-01-28T05:30:37;94147.56;;;-2.10;100.00
12219;BME280;6172;42.646;23.344;2023-01-28T05:33:06;94156.38;;;-2.10;100.00
12219;BME280;6172;42.646;23.344;2023-01-28T05:35:34;94146.31;;;-2.16;100.00
12219;BME280;6172;42.646;23.344;2023-01-28T05:38:02;94161.81;;;-2.06;100.00
12219;BME280;6172;42.646;23.344;2023-01-28T05:40:29;94157.91;;;-2.09;100.00
12219;BME280;6172;42.646;23.344;2023-01-28T05:42:56;94155.09;;;-2.16;100.00
12219;BME280;6172;42.646;23.344;2023-01-28T05:45:23;94158.34;;;-2.07;100.00
12219;BME280;6172;42.646;23.344;2023-01-28T05:47:50;94163.25;;;-2.09;100.00
12219;BME280;6172;42.646;23.344;2023-01-28T05:50:19;94157.88;;;-2.28;100.00
12219;BME280;6172;42.646;23.344;2023-01-28T05:52:46;94159.41;;;-2.27;100.00
12219;BME280;6172;42.646;23.344;2023-01-28T05:55:13;94151.47;;;-2.23;100.00
12219;BME280;6172;42.646;23.344;2023-01-28T05:57:40;94157.41;;;-2.14;100.00
12219;BME280;6172;42.646;23.344;2023-01-28T06:00:10;94168.34;;;-2.04;100.00
12219;BME280;6172;42.646;23.344;2023-01-28T06:02:38;94168.25;;;-2.23;100.00
12219;BME280;6172;42.646;23.344;2023-01-28T06:05:05;94170.00;;;-2.15;100.00
12219;BME280;6172;42.646;23.344;2023-01-28T06:07:35;94171.94;;;-2.12;100.00
12219;BME280;6172;42.646;23.344;2023-01-28T06:10:03;94184.53;;;-2.12;100.00
12219;BME280;6172;42.646;23.344;2023-01-28T06:12:30;94192.19;;;-1.95;100.00
12219;BME280;6172;42.646;23.344;2023-01-28T06:14:57;94193.16;;;-2.03;100.00
12219;BME280;6172;42.646;23.344;2023-01-28T06:17:24;94193.81;;;-1.91;100.00
12219;BME280;6172;42.646;23.344;2023-01-28T06:19:51;94201.50;;;-2.05;100.00
12219;BME280;6172;42.646;23.344;2023-01-28T06:22:19;94192.53;;;-1.97;100.00
12219;BME280;6172;42.646;23.344;2023-01-28T06:24:47;94205.44;;;-1.99;100.00
12219;BME280;6172;42.646;23.344;2023-01-28T06:27:14;94205.03;;;-2.01;100.00
12219;BME280;6172;42.646;23.344;2023-01-28T06:29:41;94203.22;;;-2.12;100.00
12219;BME280;6172;42.646;23.344;2023-01-28T06:32:09;94205.81;;;-1.66;100.00
12219;BME280;6172;42.646;23.344;2023-01-28T06:34:36;94217.38;;;-0.28;100.00
12219;BME280;6172;42.646;23.344;2023-01-28T06:37:03;94224.44;;;-0.39;100.00
12219;BME280;6172;42.646;23.344;2023-01-28T06:39:30;94220.34;;;-0.94;100.00
12219;BME280;6172;42.646;23.344;2023-01-28T06:42:00;94223.63;;;-1.19;100.00
12219;BME280;6172;42.646;23.344;2023-01-28T06:44:27;94221.53;;;-1.45;100.00
12219;BME280;6172;42.646;23.344;2023-01-28T06:46:55;94216.19;;;-1.45;100.00
12219;BME280;6172;42.646;23.344;2023-01-28T06:49:22;94236.00;;;-1.30;100.00
12219;BME280;6172;42.646;23.344;2023-01-28T06:51:49;94240.69;;;-1.43;100.00
12219;BME280;6172;42.646;23.344;2023-01-28T06:54:17;94228.63;;;-1.52;100.00
12219;BME280;6172;42.646;23.344;2023-01-28T06:56:44;94242.13;;;-1.45;100.00
12219;BME280;6172;42.646;23.344;2023-01-28T06:59:13;94248.03;;;-1.55;100.00
12219;BME280;6172;42.646;23.344;2023-01-28T07:01:40;94249.34;;;-1.65;100.00
12219;BME280;6172;42.646;23.344;2023-01-28T07:04:07;94257.09;;;-1.76;100.00
12219;BME280;6172;42.646;23.344;2023-01-28T07:06:34;94251.47;;;-1.55;100.00
12219;BME280;6172;42.646;23.344;2023-01-28T07:09:03;94251.81;;;-1.56;100.00
12219;BME280;6172;42.646;23.344;2023-01-28T07:11:30;94256.84;;;-1.71;100.00
12219;BME280;6172;42.646;23.344;2023-01-28T07:13:58;94261.91;;;-1.66;100.00
12219;BME280;6172;42.646;23.344;2023-01-28T07:16:26;94267.25;;;-1.66;100.00
12219;BME280;6172;42.646;23.344;2023-01-28T07:18:53;94278.53;;;-1.56;100.00
12219;BME280;6172;42.646;23.344;2023-01-28T07:21:20;94281.53;;;-1.42;100.00
12219;BME280;6172;42.646;23.344;2023-01-28T07:23:47;94267.31;;;-1.46;100.00
12219;BME280;6172;42.646;23.344;2023-01-28T07:26:14;94279.84;;;-1.50;100.00
12219;BME280;6172;42.646;23.344;2023-01-28T07:28:41;94283.16;;;-1.38;100.00
12219;BME280;6172;42.646;23.344;2023-01-28T07:31:09;94281.28;;;-1.37;100.00
12219;BME280;6172;42.646;23.344;2023-01-28T07:33:38;94281.97;;;-1.40;100.00
12219;BME280;6172;42.646;23.344;2023-01-28T07:36:07;94290.53;;;-1.50;100.00
12219;BME280;6172;42.646;23.344;2023-01-28T07:38:34;94292.34;;;-1.54;100.00
12219;BME280;6172;42.646;23.344;2023-01-28T07:41:01;94285.56;;;-1.68;100.00
12219;BME280;6172;42.646;23.344;2023-01-28T07:43:28;94304.16;;;-1.71;100.00
12219;BME280;6172;42.646;23.344;2023-01-28T07:45:59;94298.44;;;-1.54;100.00
12219;BME280;6172;42.646;23.344;2023-01-28T07:48:26;94294.41;;;-1.63;100.00
12219;BME280;6172;42.646;23.344;2023-01-28T07:50:57;94298.22;;;-1.64;100.00
12219;BME280;6172;42.646;23.344;2023-01-28T07:53:25;94305.09;;;-1.63;100.00
12219;BME280;6172;42.646;23.344;2023-01-28T07:55:57;94307.00;;;-1.48;100.00
12219;BME280;6172;42.646;23.344;2023-01-28T07:58:29;94295.53;;;-1.49;100.00
12219;BME280;6172;42.646;23.344;2023-01-28T08:00:57;94310.59;;;-1.56;100.00
12219;BME280;6172;42.646;23.344;2023-01-28T08:03:24;94313.44;;;-1.49;100.00
12219;BME280;6172;42.646;23.344;2023-01-28T08:05:53;94311.81;;;-1.38;100.00
12219;BME280;6172;42.646;23.344;2023-01-28T08:08:22;94308.97;;;-1.11;100.00
12219;BME280;6172;42.646;23.344;2023-01-28T08:10:49;94303.22;;;-1.13;100.00
12219;BME280;6172;42.646;23.344;2023-01-28T08:13:17;94317.09;;;-1.07;100.00
12219;BME280;6172;42.646;23.344;2023-01-28T08:15:46;94301.81;;;-1.07;100.00
12219;BME280;6172;42.646;23.344;2023-01-28T08:18:14;94301.25;;;-1.16;100.00
12219;BME280;6172;42.646;23.344;2023-01-28T08:20:42;94311.44;;;-1.02;100.00
12219;BME280;6172;42.646;23.344;2023-01-28T08:23:13;94311.44;;;-1.02;100.00
12219;BME280;6172;42.646;23.344;2023-01-28T08:25:43;94309.75;;;-1.10;100.00
12219;BME280;6172;42.646;23.344;2023-01-28T08:28:11;94324.66;;;-1.09;100.00
12219;BME280;6172;42.646;23.344;2023-01-28T08:30:38;94311.38;;;-1.06;100.00
12219;BME280;6172;42.646;23.344;2023-01-28T08:33:06;94325.44;;;-1.09;100.00
12219;BME280;6172;42.646;23.344;2023-01-28T08:35:33;94318.91;;;-0.92;100.00
12219;BME280;6172;42.646;23.344;2023-01-28T08:38:02;94319.09;;;-0.85;100.00
12219;BME280;6172;42.646;23.344;2023-01-28T08:40:29;94311.56;;;-0.80;100.00
12219;BME280;6172;42.646;23.344;2023-01-28T08:43:09;94321.91;;;-0.78;100.00
12219;BME280;6172;42.646;23.344;2023-01-28T08:45:38;94314.25;;;-0.80;100.00
12219;BME280;6172;42.646;23.344;2023-01-28T08:48:09;94321.47;;;-0.80;100.00
12219;BME280;6172;42.646;23.344;2023-01-28T08:50:38;94307.28;;;-0.84;100.00
12219;BME280;6172;42.646;23.344;2023-01-28T08:53:06;94322.81;;;-0.71;100.00
12219;BME280;6172;42.646;23.344;2023-01-28T08:55:33;94327.19;;;-0.82;100.00
12219;BME280;6172;42.646;23.344;2023-01-28T08:58:17;94309.44;;;-0.71;100.00
12219;BME280;6172;42.646;23.344;2023-01-28T09:00:45;94317.56;;;-0.67;100.00
12219;BME280;6172;42.646;23.344;2023-01-28T09:03:15;94316.78;;;-0.49;100.00
12219;BME280;6172;42.646;23.344;2023-01-28T09:05:47;94304.75;;;-0.39;100.00
12219;BME280;6172;42.646;23.344;2023-01-28T09:08:14;94315.06;;;-0.19;100.00
12219;BME280;6172;42.646;23.344;2023-01-28T09:10:42;94323.19;;;0.07;100.00
12219;BME280;6172;42.646;23.344;2023-01-28T09:13:11;94315.66;;;-0.06;100.00
12219;BME280;6172;42.646;23.344;2023-01-28T09:15:58;94311.56;;;-0.00;100.00
12219;BME280;6172;42.646;23.344;2023-01-28T09:18:40;94311.44;;;-0.49;100.00
12219;BME280;6172;42.646;23.344;2023-01-28T09:21:13;94312.41;;;-0.38;100.00
12219;BME280;6172;42.646;23.344;2023-01-28T09:23:40;94329.13;;;-0.44;100.00
12219;BME280;6172;42.646;23.344;2023-01-28T09:26:07;94315.84;;;-0.37;100.00
12219;BME280;6172;42.646;23.344;2023-01-28T09:28:35;94318.44;;;-0.22;100.00
12219;BME280;6172;42.646;23.344;2023-01-28T09:31:11;94305.13;;;-0.18;100.00
12219;BME280;6172;42.646;23.344;2023-01-28T09:33:39;94312.59;;;-0.27;100.00
12219;BME280;6172;42.646;23.344;2023-01-28T09:36:07;94312.47;;;-0.34;100.00
12219;BME280;6172;42.646;23.344;2023-01-28T09:38:35;94323.88;;;-0.18;100.00
12219;BME280;6172;42.646;23.344;2023-01-28T09:41:17;94323.44;;;-0.01;100.00
12219;BME280;6172;42.646;23.344;2023-01-28T09:44:02;94323.72;;;-0.06;100.00
12219;BME280;6172;42.646;23.344;2023-01-28T09:46:36;94309.47;;;-0.10;100.00
12219;BME280;6172;42.646;23.344;2023-01-28T09:49:11;94327.59;;;-0.04;100.00
12219;BME280;6172;42.646;23.344;2023-01-28T09:51:46;94321.00;;;0.13;100.00
12219;BME280;6172;42.646;23.344;2023-01-28T09:54:23;94324.81;;;0.12;100.00
12219;BME280;6172;42.646;23.344;2023-01-28T09:56:56;94320.16;;;0.09;100.00
12219;BME280;6172;42.646;23.344;2023-01-28T09:59:32;94313.25;;;0.30;100.00
12219;BME280;6172;42.646;23.344;2023-01-28T10:02:15;94326.03;;;0.37;100.00
12219;BME280;6172;42.646;23.344;2023-01-28T10:04:57;94318.03;;;0.18;100.00
12219;BME280;6172;42.646;23.344;2023-01-28T10:07:36;94309.09;;;0.10;100.00
12219;BME280;6172;42.646;23.344;2023-01-28T10:10:10;94315.94;;;0.08;100.00
12219;BME280;6172;42.646;23.344;2023-01-28T10:12:57;94308.84;;;-0.04;100.00
12219;BME280;6172;42.646;23.344;2023-01-28T10:15:46;94315.13;;;0.04;100.00
12219;BME280;6172;42.646;23.344;2023-01-28T10:18:20;94309.13;;;-0.09;100.00
12219;BME280;6172;42.646;23.344;2023-01-28T10:20:54;94312.38;;;0.23;100.00
12219;BME280;6172;42.646;23.344;2023-01-28T10:23:27;94312.28;;;-0.03;100.00
12219;BME280;6172;42.646;23.344;2023-01-28T10:25:58;94318.19;;;0.06;100.00
12219;BME280;6172;42.646;23.344;2023-01-28T10:28:28;94317.84;;;0.07;100.00
12219;BME280;6172;42.646;23.344;2023-01-28T10:30:56;94310.50;;;0.04;100.00
12219;BME280;6172;42.646;23.344;2023-01-28T10:33:32;94312.72;;;-0.01;100.00
12219;BME280;6172;42.646;23.344;2023-01-28T10:36:02;94309.59;;;-0.03;100.00
12219;BME280;6172;42.646;23.344;2023-01-28T10:38:34;94314.66;;;0.21;100.00
12219;BME280;6172;42.646;23.344;2023-01-28T10:41:03;94313.44;;;0.18;100.00
12219;BME280;6172;42.646;23.344;2023-01-28T10:43:31;94314.53;;;0.14;100.00
12219;BME280;6172;42.646;23.344;2023-01-28T10:46:03;94307.19;;;0.11;100.00
12219;BME280;6172;42.646;23.344;2023-01-28T10:48:37;94311.34;;;0.08;100.00
12219;BME280;6172;42.646;23.344;2023-01-28T10:51:08;94307.59;;;0.13;100.00
12219;BME280;6172;42.646;23.344;2023-01-28T10:53:38;94307.66;;;0.39;100.00
12219;BME280;6172;42.646;23.344;2023-01-28T10:56:07;94298.94;;;0.68;100.00
12219;BME280;6172;42.646;23.344;2023-01-28T10:58:44;94305.22;;;0.79;100.00
12219;BME280;6172;42.646;23.344;2023-01-28T11:01:13;94290.13;;;0.94;100.00
12219;BME280;6172;42.646;23.344;2023-01-28T11:03:53;94296.91;;;1.14;100.00
12219;BME280;6172;42.646;23.344;2023-01-28T11:06:25;94291.59;;;1.17;100.00
12219;BME280;6172;42.646;23.344;2023-01-28T11:08:55;94292.84;;;0.97;100.00
12219;BME280;6172;42.646;23.344;2023-01-28T11:11:24;94297.41;;;0.67;100.00
12219;BME280;6172;42.646;23.344;2023-01-28T11:13:52;94282.03;;;0.64;100.00
12219;BME280;6172;42.646;23.344;2023-01-28T11:16:23;94287.50;;;0.71;100.00
12219;BME280;6172;42.646;23.344;2023-01-28T11:18:57;94295.28;;;0.79;100.00
12219;BME280;6172;42.646;23.344;2023-01-28T11:21:27;94286.66;;;0.93;100.00
12219;BME280;6172;42.646;23.344;2023-01-28T11:23:58;94290.28;;;1.04;100.00
12219;BME280;6172;42.646;23.344;2023-01-28T11:26:27;94287.97;;;0.76;100.00
12219;BME280;6172;42.646;23.344;2023-01-28T11:28:56;94287.75;;;0.89;100.00
12219;BME280;6172;42.646;23.344;2023-01-28T11:31:25;94290.47;;;0.66;100.00
12219;BME280;6172;42.646;23.344;2023-01-28T11:33:56;94283.66;;;0.72;100.00
12219;BME280;6172;42.646;23.344;2023-01-28T11:36:25;94284.56;;;0.79;100.00
12219;BME280;6172;42.646;23.344;2023-01-28T11:38:55;94293.34;;;1.06;100.00
12219;BME280;6172;42.646;23.344;2023-01-28T11:41:26;94288.22;;;0.94;100.00
12219;BME280;6172;42.646;23.344;2023-01-28T11:43:54;94295.28;;;0.79;100.00
12219;BME280;6172;42.646;23.344;2023-01-28T11:49:25;94281.06;;;0.75;100.00
12219;BME280;6172;42.646;23.344;2023-01-28T11:52:02;94288.06;;;0.83;100.00
12219;BME280;6172;42.646;23.344;2023-01-28T11:54:42;94294.81;;;0.74;100.00
12219;BME280;6172;42.646;23.344;2023-01-28T11:57:25;94290.78;;;0.61;100.00
12219;BME280;6172;42.646;23.344;2023-01-28T12:00:13;94282.78;;;0.64;100.00
12219;BME280;6172;42.646;23.344;2023-01-28T12:03:10;94277.03;;;0.62;100.00
12219;BME280;6172;42.646;23.344;2023-01-28T12:06:11;94285.81;;;0.63;100.00
12219;BME280;6172;42.646;23.344;2023-01-28T12:08:47;94282.75;;;0.61;100.00
12219;BME280;6172;42.646;23.344;2023-01-28T12:11:28;94291.78;;;0.53;100.00
12219;BME280;6172;42.646;23.344;2023-01-28T12:14:29;94290.81;;;0.64;100.00
12219;BME280;6172;42.646;23.344;2023-01-28T12:17:22;94290.38;;;0.59;100.00
12219;BME280;6172;42.646;23.344;2023-01-28T12:20:39;94286.88;;;0.55;100.00
12219;BME280;6172;42.646;23.344;2023-01-28T12:23:25;94290.53;;;0.69;100.00
12219;BME280;6172;42.646;23.344;2023-01-28T12:26:06;94289.94;;;0.83;100.00
12219;BME280;6172;42.646;23.344;2023-01-28T12:28:51;94291.19;;;0.89;100.00
12219;BME280;6172;42.646;23.344;2023-01-28T12:31:46;94291.72;;;0.72;100.00
12219;BME280;6172;42.646;23.344;2023-01-28T12:34:36;94297.03;;;0.68;100.00
12219;BME280;6172;42.646;23.344;2023-01-28T12:37:17;94297.75;;;0.43;100.00
12219;BME280;6172;42.646;23.344;2023-01-28T12:40:00;94298.63;;;0.47;100.00
12219;BME280;6172;42.646;23.344;2023-01-28T12:42:36;94296.09;;;0.57;100.00
12219;BME280;6172;42.646;23.344;2023-01-28T12:45:14;94297.94;;;0.53;100.00
12219;BME280;6172;42.646;23.344;2023-01-28T12:47:47;94305.44;;;0.67;100.00
12219;BME280;6172;42.646;23.344;2023-01-28T12:50:20;94315.56;;;0.54;100.00
12219;BME280;6172;42.646;23.344;2023-01-28T12:52:52;94313.34;;;0.60;100.00
12219;BME280;6172;42.646;23.344;2023-01-28T12:55:36;94314.94;;;0.61;100.00
12219;BME280;6172;42.646;23.344;2023-01-28T12:58:16;94322.66;;;0.66;100.00
12219;BME280;6172;42.646;23.344;2023-01-28T13:00:50;94319.25;;;0.69;100.00
12219;BME280;6172;42.646;23.344;2023-01-28T13:03:27;94318.34;;;0.84;100.00
12219;BME280;6172;42.646;23.344;2023-01-28T13:06:05;94322.16;;;0.57;100.00
12219;BME280;6172;42.646;23.344;2023-01-28T13:08:35;94320.88;;;0.28;100.00
12219;BME280;6172;42.646;23.344;2023-01-28T13:11:05;94336.75;;;0.37;100.00
12219;BME280;6172;42.646;23.344;2023-01-28T13:13:36;94320.53;;;0.30;100.00
12219;BME280;6172;42.646;23.344;2023-01-28T13:16:07;94332.94;;;0.38;100.00
12219;BME280;6172;42.646;23.344;2023-01-28T13:18:44;94327.13;;;0.36;100.00
12219;BME280;6172;42.646;23.344;2023-01-28T13:21:15;94340.53;;;0.36;100.00